createdAt,value
2022-08-10T00:01:39.333Z,0.90
2022-08-10T00:04:10.761Z,1.00
2022-08-10T00:06:49.762Z,0.88
2022-08-10T00:09:18.474Z,1.00
2022-08-10T00:11:44.889Z,1.25
2022-08-10T00:14:11.318Z,1.00
2022-08-10T00:16:37.753Z,0.90
2022-08-10T00:19:04.232Z,0.93
2022-08-10T00:21:32.653Z,1.15
2022-08-10T00:23:59.068Z,1.20
2022-08-10T00:26:25.477Z,1.08
2022-08-10T00:28:52.620Z,1.10
2022-08-10T00:31:19.102Z,0.82
2022-08-10T00:33:45.533Z,1.00
2022-08-10T00:36:12.031Z,1.00
2022-08-10T00:38:40.809Z,1.10
2022-08-10T00:41:07.314Z,1.10
2022-08-10T00:43:38.538Z,1.17
2022-08-10T00:46:07.449Z,1.10
2022-08-10T00:48:33.905Z,1.30
2022-08-10T00:51:02.816Z,1.20
2022-08-10T00:53:32.283Z,1.10
2022-08-10T00:57:10.009Z,1.00
2022-08-10T00:58:49.137Z,0.80
2022-08-10T01:02:10.189Z,0.82
2022-08-10T01:04:36.342Z,0.80
2022-08-10T01:07:11.251Z,0.82
2022-08-10T01:09:43.702Z,1.30
2022-08-10T01:12:41.462Z,1.20
2022-08-10T01:15:14.077Z,1.23
2022-08-10T01:17:50.474Z,1.10
2022-08-10T01:20:30.844Z,0.90
2022-08-10T01:23:31.067Z,1.10
2022-08-10T01:26:34.259Z,1.08
2022-08-10T01:29:15.282Z,1.20
2022-08-10T01:31:45.720Z,1.02
2022-08-10T01:34:16.212Z,1.10
2022-08-10T01:36:47.981Z,0.90
2022-08-10T01:39:30.845Z,0.82
2022-08-10T01:42:00.689Z,1.25
2022-08-10T01:44:33.957Z,1.20
2022-08-10T01:47:22.702Z,1.10
2022-08-10T01:49:56.346Z,0.90
2022-08-10T01:52:23.785Z,0.90
2022-08-10T01:54:54.056Z,1.10
2022-08-10T01:57:27.060Z,1.20
2022-08-10T02:00:01.937Z,1.20
2022-08-10T02:02:30.405Z,1.30
2022-08-10T02:05:01.899Z,1.10
2022-08-10T02:07:30.839Z,0.90
2022-08-10T02:09:59.564Z,1.00
2022-08-10T02:12:32.686Z,1.10
2022-08-10T02:15:01.884Z,1.30
2022-08-10T02:17:57.454Z,1.30
2022-08-10T02:20:40.314Z,1.00
2022-08-10T02:23:11.524Z,1.33
2022-08-10T02:25:43.408Z,1.38
2022-08-10T02:28:27.412Z,1.20
2022-08-10T02:31:06.546Z,1.13
2022-08-10T02:33:36.953Z,1.25
2022-08-10T02:36:08.696Z,1.10
2022-08-10T02:38:59.092Z,1.25
2022-08-10T02:45:15.496Z,1.15
2022-08-10T02:45:18.407Z,1.20
2022-08-10T02:47:22.503Z,1.33
2022-08-10T02:49:54.805Z,1.23
2022-08-10T02:52:27.968Z,1.10
2022-08-10T02:55:17.475Z,1.15
2022-08-10T02:58:17.057Z,1.30
2022-08-10T03:00:46.707Z,1.30
2022-08-10T03:03:23.723Z,1.15
2022-08-10T03:05:56.951Z,1.30
2022-08-10T03:08:27.511Z,1.20
2022-08-10T03:10:55.076Z,0.90
2022-08-10T03:13:22.063Z,1.45
2022-08-10T03:15:55.337Z,1.25
2022-08-10T03:18:24.751Z,1.13
2022-08-10T03:20:51.807Z,1.25
2022-08-10T03:23:23.746Z,1.33
2022-08-10T03:25:54.975Z,1.13
2022-08-10T03:28:23.141Z,1.70
2022-08-10T03:30:52.394Z,1.35
2022-08-10T03:33:22.376Z,1.20
2022-08-10T03:36:42.830Z,1.20
2022-08-10T03:38:36.540Z,1.50
2022-08-10T03:41:06.559Z,1.20
2022-08-10T03:43:35.608Z,1.40
2022-08-10T03:46:08.116Z,1.10
2022-08-10T03:48:48.584Z,1.40
2022-08-10T03:51:17.882Z,1.30
2022-08-10T03:54:03.176Z,1.35
2022-08-10T03:56:35.140Z,1.40
2022-08-10T03:59:04.340Z,1.35
2022-08-10T04:02:46.316Z,1.25
2022-08-10T04:04:23.300Z,1.50
2022-08-10T04:06:54.646Z,1.60
2022-08-10T04:09:29.680Z,1.42
2022-08-10T04:12:14.312Z,1.90
2022-08-10T04:14:49.657Z,1.15
2022-08-10T04:18:02.723Z,1.50
2022-08-10T04:20:13.168Z,1.30
2022-08-10T04:22:42.470Z,1.17
2022-08-10T04:25:13.283Z,1.10
2022-08-10T04:27:39.820Z,1.40
2022-08-10T04:30:07.012Z,1.40
2022-08-10T04:32:36.791Z,1.50
2022-08-10T04:35:05.185Z,1.50
2022-08-10T04:37:34.090Z,1.50
2022-08-10T04:40:01.220Z,1.60
2022-08-10T04:42:27.699Z,1.35
2022-08-10T04:44:55.076Z,1.15
2022-08-10T04:48:00.311Z,1.27
2022-08-10T04:50:12.787Z,1.65
2022-08-10T04:52:43.551Z,1.42
2022-08-10T04:55:12.522Z,1.33
2022-08-10T04:57:41.063Z,1.15
2022-08-10T05:00:17.045Z,1.08
2022-08-10T05:02:48.170Z,1.50
2022-08-10T05:05:14.567Z,1.52
2022-08-10T05:07:51.455Z,2.30
2022-08-10T05:10:20.804Z,2.10
2022-08-10T05:12:47.257Z,2.47
2022-08-10T05:15:15.600Z,2.65
2022-08-10T05:18:08.959Z,2.72
2022-08-10T05:20:32.148Z,2.47
2022-08-10T05:23:00.655Z,2.45
2022-08-10T05:25:27.084Z,2.25
2022-08-10T05:28:01.928Z,2.20
2022-08-10T05:30:32.162Z,2.20
2022-08-10T05:33:08.079Z,2.03
2022-08-10T05:35:56.319Z,1.90
2022-08-10T05:38:28.502Z,1.65
2022-08-10T05:40:55.867Z,2.20
2022-08-10T05:43:27.263Z,1.92
2022-08-10T05:46:17.245Z,1.92
2022-08-10T05:48:59.534Z,2.20
2022-08-10T05:51:32.041Z,2.20
2022-08-10T05:54:05.989Z,2.03
2022-08-10T05:56:54.018Z,1.83
2022-08-10T06:00:10.845Z,1.85
2022-08-10T06:02:33.374Z,1.90
2022-08-10T06:05:09.278Z,1.40
2022-08-10T06:07:46.968Z,1.90
2022-08-10T06:10:31.011Z,1.60
2022-08-10T06:13:26.936Z,1.80
2022-08-10T06:16:00.524Z,1.70
2022-08-10T06:18:29.480Z,1.52
2022-08-10T06:20:57.412Z,1.40
2022-08-10T06:23:25.814Z,1.67
2022-08-10T06:26:12.167Z,1.60
2022-08-10T06:29:02.438Z,1.40
2022-08-10T06:31:48.767Z,1.58
2022-08-10T06:34:23.538Z,1.35
2022-08-10T06:36:50.215Z,1.50
2022-08-10T06:39:33.125Z,1.50
2022-08-10T06:42:14.677Z,1.30
2022-08-10T06:45:13.949Z,1.40
2022-08-10T06:47:49.407Z,1.48
2022-08-10T06:50:44.979Z,1.20
2022-08-10T06:53:12.873Z,1.20
2022-08-10T06:55:55.556Z,1.30
2022-08-10T06:58:29.455Z,1.60
2022-08-10T07:00:56.913Z,1.38
2022-08-10T07:03:31.360Z,1.40
2022-08-10T07:06:01.684Z,1.38
2022-08-10T07:08:31.712Z,1.52
2022-08-10T07:10:58.407Z,1.55
2022-08-10T07:14:17.271Z,1.40
2022-08-10T07:16:16.916Z,1.17
2022-08-10T07:18:44.928Z,1.52
2022-08-10T07:21:14.385Z,1.30
2022-08-10T07:23:57.857Z,1.20
2022-08-10T07:26:29.106Z,1.20
2022-08-10T07:28:56.063Z,1.30
2022-08-10T07:31:54.551Z,1.20
2022-08-10T07:34:10.260Z,1.20
2022-08-10T07:36:39.378Z,1.35
2022-08-10T07:39:09.601Z,1.60
2022-08-10T07:41:42.837Z,1.38
2022-08-10T07:44:10.573Z,1.33
2022-08-10T07:46:38.871Z,1.35
2022-08-10T07:49:19.083Z,1.13
2022-08-10T07:51:54.716Z,1.10
2022-08-10T07:54:23.431Z,1.00
2022-08-10T07:56:52.140Z,1.20
2022-08-10T07:59:27.970Z,1.60
2022-08-10T08:01:55.876Z,0.90
2022-08-10T08:04:24.244Z,0.95
2022-08-10T08:06:51.917Z,1.20
2022-08-10T08:09:21.632Z,1.00
2022-08-10T08:11:50.859Z,1.08
2022-08-10T08:14:19.352Z,1.10
2022-08-10T08:16:51.194Z,0.90
2022-08-10T08:19:27.811Z,1.00
2022-08-10T08:24:10.566Z,1.02
2022-08-10T08:24:43.634Z,1.10
2022-08-10T08:27:16.082Z,1.45
2022-08-10T08:29:44.593Z,1.35
2022-08-10T08:32:11.705Z,0.82
2022-08-10T08:34:39.990Z,1.08
2022-08-10T08:37:10.341Z,1.10
2022-08-10T08:39:40.995Z,0.90
2022-08-10T08:42:28.209Z,1.05
2022-08-10T08:45:02.131Z,1.00
2022-08-10T08:48:05.427Z,1.08
2022-08-10T08:50:58.007Z,1.00
2022-08-10T08:54:03.245Z,0.98
2022-08-10T08:56:31.196Z,1.30
2022-08-10T08:59:22.505Z,1.13
2022-08-10T09:02:14.215Z,1.33
2022-08-10T09:04:56.191Z,1.00
2022-08-10T09:08:01.630Z,1.30
2022-08-10T09:10:37.143Z,1.20
2022-08-10T09:13:20.925Z,1.15
2022-08-10T09:16:05.295Z,0.95
2022-08-10T09:18:34.272Z,0.95
2022-08-10T09:21:09.786Z,1.35
2022-08-10T09:24:04.262Z,1.08
2022-08-10T09:26:40.481Z,0.88
2022-08-10T09:29:12.677Z,1.20
2022-08-10T09:32:55.050Z,1.20
2022-08-10T09:36:19.530Z,0.90
2022-08-10T09:38:01.707Z,0.80
2022-08-10T09:41:00.160Z,1.33
2022-08-10T09:43:35.228Z,0.98
2022-08-10T09:46:23.006Z,1.05
2022-08-10T09:49:25.836Z,1.20
2022-08-10T09:52:27.577Z,1.20
2022-08-10T09:56:17.985Z,1.17
2022-08-10T09:58:38.580Z,1.10
2022-08-10T10:01:57.942Z,1.00
2022-08-10T10:04:08.000Z,1.10
2022-08-10T10:06:46.176Z,1.00
2022-08-10T10:09:18.659Z,1.00
2022-08-10T10:12:09.352Z,1.08
2022-08-10T10:15:36.241Z,1.08
2022-08-10T10:18:02.686Z,1.20
2022-08-10T10:20:42.325Z,1.10
2022-08-10T10:23:26.212Z,1.23
2022-08-10T10:26:18.322Z,1.35
2022-08-10T10:31:57.024Z,1.00
2022-08-10T10:34:35.698Z,1.00
2022-08-10T10:37:03.046Z,1.02
2022-08-10T10:39:33.538Z,1.15
2022-08-10T10:42:47.631Z,1.10
2022-08-10T10:45:50.433Z,1.10
2022-08-10T10:48:23.783Z,1.10
2022-08-10T10:51:16.840Z,1.15
2022-08-10T10:54:13.410Z,1.10
2022-08-10T10:56:54.526Z,1.13
2022-08-10T11:00:06.325Z,1.10
2022-08-10T11:03:02.491Z,1.00
2022-08-10T11:06:02.914Z,0.82
2022-08-10T11:08:33.876Z,1.42
2022-08-10T11:11:25.336Z,1.20
2022-08-10T11:14:30.258Z,1.08
2022-08-10T11:17:09.420Z,1.00
2022-08-10T11:20:14.839Z,1.05
2022-08-10T11:23:14.177Z,0.95
2022-08-10T11:25:53.479Z,1.20
2022-08-10T11:28:36.944Z,1.08
2022-08-10T11:31:15.730Z,1.17
2022-08-10T11:34:11.610Z,1.15
2022-08-10T11:36:58.842Z,1.15
2022-08-10T11:39:48.581Z,1.10
2022-08-10T11:42:31.647Z,1.30
2022-08-10T11:45:31.666Z,1.10
2022-08-10T11:48:53.989Z,1.20
2022-08-10T11:51:23.384Z,1.10
2022-08-10T11:54:12.610Z,1.00
2022-08-10T11:56:47.432Z,0.93
2022-08-10T11:59:34.627Z,1.15
2022-08-10T12:02:02.474Z,1.20
2022-08-10T12:04:29.134Z,1.00
2022-08-10T12:06:56.859Z,1.10
2022-08-10T12:10:09.525Z,1.13
2022-08-10T12:12:15.640Z,1.05
2022-08-10T12:14:50.786Z,1.10
2022-08-10T12:17:25.085Z,1.33
2022-08-10T12:20:10.837Z,1.20
2022-08-10T12:22:49.336Z,1.25
2022-08-10T12:25:57.877Z,1.27
2022-08-10T12:28:17.808Z,1.00
2022-08-10T12:30:56.293Z,1.10
2022-08-10T12:33:34.635Z,1.10
2022-08-10T12:36:28.564Z,1.13
2022-08-10T12:39:15.251Z,1.25
2022-08-10T12:42:02.863Z,1.20
2022-08-10T12:44:49.119Z,1.42
2022-08-10T12:47:33.181Z,1.10
2022-08-10T12:50:30.618Z,1.33
2022-08-10T12:53:06.943Z,1.15
2022-08-10T12:55:36.777Z,1.10
2022-08-10T12:58:06.683Z,1.30
2022-08-10T13:01:15.038Z,1.10
2022-08-10T13:04:23.978Z,1.20
2022-08-10T13:06:33.369Z,1.30
2022-08-10T13:09:08.928Z,1.25
2022-08-10T13:12:35.265Z,1.10
2022-08-10T13:14:30.297Z,1.42
2022-08-10T13:17:00.638Z,1.35
2022-08-10T13:19:55.507Z,1.23
2022-08-10T13:22:16.397Z,1.08
2022-08-10T13:24:48.817Z,1.25
2022-08-10T13:28:00.483Z,1.13
2022-08-10T13:30:19.697Z,1.25
2022-08-10T13:33:04.624Z,1.38
2022-08-10T13:35:32.204Z,1.02
2022-08-10T13:37:59.228Z,1.00
2022-08-10T13:40:26.602Z,1.10
2022-08-10T13:42:58.375Z,1.02
2022-08-10T13:45:30.079Z,1.27
2022-08-10T13:48:09.741Z,1.00
2022-08-10T13:50:39.021Z,1.15
2022-08-10T13:53:13.974Z,1.00
2022-08-10T13:55:55.437Z,1.20
2022-08-10T13:58:39.889Z,1.42
2022-08-10T14:01:15.234Z,0.93
2022-08-10T14:03:45.407Z,1.13
2022-08-10T14:06:14.248Z,1.17
2022-08-10T14:08:46.405Z,1.30
2022-08-10T14:11:16.420Z,1.17
2022-08-10T14:13:51.834Z,1.02
2022-08-10T14:16:18.944Z,1.20
2022-08-10T14:18:50.064Z,1.20
2022-08-10T14:21:16.966Z,1.20
2022-08-10T14:23:53.061Z,1.05
2022-08-10T14:26:41.093Z,1.27
2022-08-10T14:29:09.602Z,1.05
2022-08-10T14:32:00.291Z,1.20
2022-08-10T14:36:16.786Z,1.20
2022-08-10T14:37:25.603Z,1.10
2022-08-10T14:39:59.374Z,1.00
2022-08-10T14:42:29.926Z,1.10
2022-08-10T14:45:05.721Z,1.40
2022-08-10T14:47:53.831Z,1.10
2022-08-10T14:50:33.657Z,1.40
2022-08-10T14:53:16.269Z,1.27
2022-08-10T14:56:09.443Z,1.30
2022-08-10T14:59:06.307Z,1.13
2022-08-10T15:02:01.089Z,1.20
2022-08-10T15:04:17.083Z,1.30
2022-08-10T15:06:55.329Z,1.10
2022-08-10T15:09:24.377Z,1.10
2022-08-10T15:12:14.968Z,1.10
2022-08-10T15:17:44.045Z,1.23
2022-08-10T15:20:22.247Z,1.08
2022-08-10T15:26:29.513Z,0.90
2022-08-10T15:29:22.813Z,1.08
2022-08-10T15:32:10.712Z,1.20
2022-08-10T15:34:56.893Z,1.20
2022-08-10T15:37:36.246Z,1.10
2022-08-10T15:40:25.522Z,1.08
2022-08-10T15:43:20.108Z,1.10
2022-08-10T15:46:15.682Z,1.20
2022-08-10T15:48:48.231Z,1.10
2022-08-10T15:51:33.788Z,0.90
2022-08-10T15:54:33.714Z,1.15
2022-08-10T15:57:03.863Z,1.30
2022-08-10T15:59:40.982Z,1.17
2022-08-10T16:02:17.149Z,1.10
2022-08-10T16:04:54.784Z,1.10
2022-08-10T16:07:36.439Z,1.05
2022-08-10T16:10:25.776Z,1.10
2022-08-10T16:13:59.941Z,1.00
2022-08-10T16:16:03.937Z,0.82
2022-08-10T16:18:32.332Z,0.90
2022-08-10T16:21:01.233Z,1.10
2022-08-10T16:23:40.511Z,1.00
2022-08-10T16:26:14.798Z,0.93
2022-08-10T16:28:55.644Z,0.98
2022-08-10T16:31:29.697Z,1.13
2022-08-10T16:33:58.961Z,1.05
2022-08-10T16:36:31.470Z,0.88
2022-08-10T16:38:58.794Z,0.82
2022-08-10T16:42:03.740Z,1.45
2022-08-10T16:44:17.310Z,0.90
2022-08-10T16:46:49.048Z,1.00
2022-08-10T16:49:16.784Z,1.13
2022-08-10T16:51:46.874Z,1.10
2022-08-10T16:54:16.742Z,1.13
2022-08-10T16:56:49.288Z,1.23
2022-08-10T16:59:24.252Z,1.20
2022-08-10T17:01:54.405Z,1.30
2022-08-10T17:04:27.222Z,1.27
2022-08-10T17:07:03.135Z,1.15
2022-08-10T17:09:33.462Z,1.35
2022-08-10T17:12:10.333Z,1.02
2022-08-10T17:14:43.271Z,1.00
2022-08-10T17:17:25.780Z,1.02
2022-08-10T17:19:57.861Z,1.20
2022-08-10T17:22:44.792Z,1.20
2022-08-10T17:25:15.288Z,1.08
2022-08-10T17:28:05.262Z,1.17
2022-08-10T17:30:35.417Z,1.00
2022-08-10T17:33:19.480Z,1.00
2022-08-10T17:35:50.672Z,1.10
2022-08-10T17:38:30.064Z,1.00
2022-08-10T17:41:06.631Z,1.20
2022-08-10T17:44:01.107Z,1.00
2022-08-10T17:46:32.426Z,0.85
2022-08-10T17:49:07.417Z,1.00
2022-08-10T17:51:34.623Z,1.23
2022-08-10T17:54:02.079Z,1.27
2022-08-10T17:56:31.606Z,1.10
2022-08-10T17:59:06.211Z,1.20
2022-08-10T18:01:41.152Z,1.15
2022-08-10T18:04:26.982Z,1.10
2022-08-10T18:06:57.271Z,1.00
2022-08-10T18:09:36.490Z,1.10
2022-08-10T18:12:19.516Z,1.15
2022-08-10T18:14:55.366Z,1.20
2022-08-10T18:17:24.272Z,1.13
2022-08-10T18:19:58.424Z,1.20
2022-08-10T18:22:27.658Z,1.10
2022-08-10T18:24:55.350Z,1.00
2022-08-10T18:27:23.235Z,1.23
2022-08-10T18:30:11.755Z,1.30
2022-08-10T18:32:41.465Z,1.00
2022-08-10T18:35:08.941Z,0.95
2022-08-10T18:37:36.756Z,1.10
2022-08-10T18:40:05.380Z,1.10
2022-08-10T18:42:41.313Z,1.00
2022-08-10T18:45:21.394Z,1.00
2022-08-10T18:48:05.427Z,1.38
2022-08-10T18:50:47.307Z,1.00
2022-08-10T18:53:20.543Z,1.15
2022-08-10T18:56:09.643Z,1.02
2022-08-10T18:58:46.344Z,1.25
2022-08-10T19:01:18.421Z,1.05
2022-08-10T19:03:53.737Z,1.00
2022-08-10T19:06:42.358Z,1.20
2022-08-10T19:09:46.075Z,1.63
2022-08-10T19:12:36.717Z,1.27
2022-08-10T19:15:10.048Z,1.05
2022-08-10T19:18:06.770Z,1.27
2022-08-10T19:20:42.705Z,1.48
2022-08-10T19:23:49.042Z,1.00
2022-08-10T19:26:45.816Z,1.00
2022-08-10T19:30:11.417Z,1.17
2022-08-10T19:32:41.907Z,1.35
2022-08-10T19:35:33.429Z,1.30
2022-08-10T19:38:49.326Z,1.20
2022-08-10T19:41:30.878Z,1.10
2022-08-10T19:44:47.333Z,0.75
2022-08-10T19:47:32.403Z,7.22
2022-08-10T19:50:15.200Z,10.95
2022-08-10T19:53:18.880Z,4.70
2022-08-10T19:56:18.782Z,1.55
2022-08-10T20:00:16.384Z,1.00
2022-08-10T20:02:06.869Z,2.08
2022-08-10T20:04:38.729Z,1.48
2022-08-10T20:07:15.914Z,1.23
2022-08-10T20:09:45.313Z,1.63
2022-08-10T20:12:35.119Z,1.20
2022-08-10T20:15:11.455Z,1.10
2022-08-10T20:17:45.019Z,1.17
2022-08-10T20:20:29.167Z,0.95
2022-08-10T20:23:20.866Z,1.38
2022-08-10T20:26:11.448Z,1.00
2022-08-10T20:28:43.311Z,1.10
2022-08-10T20:31:19.365Z,1.27
2022-08-10T20:34:01.471Z,1.20
2022-08-10T20:36:33.590Z,1.30
2022-08-10T20:39:14.179Z,1.33
2022-08-10T20:42:01.780Z,1.10
2022-08-10T20:44:30.912Z,0.90
2022-08-10T20:47:18.646Z,1.15
2022-08-10T20:50:12.484Z,1.42
2022-08-10T20:52:44.202Z,1.40
2022-08-10T20:55:13.872Z,1.20
2022-08-10T20:57:59.104Z,1.30
2022-08-10T21:00:58.290Z,1.23
2022-08-10T21:04:13.306Z,1.10
2022-08-10T21:06:51.805Z,1.20
2022-08-10T21:09:44.049Z,1.42
2022-08-10T21:12:46.768Z,1.10
2022-08-10T21:15:42.095Z,1.13
2022-08-10T21:18:20.660Z,1.13
2022-08-10T21:21:09.128Z,1.30
2022-08-10T21:23:45.555Z,1.10
2022-08-10T21:26:29.547Z,1.20
2022-08-10T21:32:09.242Z,1.20
2022-08-10T21:35:01.223Z,1.00
2022-08-10T21:37:56.890Z,1.13
2022-08-10T21:41:18.033Z,0.98
2022-08-10T21:44:28.389Z,1.00
2022-08-10T21:48:04.855Z,0.90
2022-08-10T21:50:25.533Z,1.05
2022-08-10T21:53:44.907Z,1.20
2022-08-10T21:56:39.612Z,0.90
2022-08-10T21:59:35.003Z,1.00
2022-08-10T22:02:28.082Z,0.90
2022-08-10T22:05:20.774Z,1.20
2022-08-10T22:08:12.955Z,0.90
2022-08-10T22:11:16.109Z,0.98
2022-08-10T22:14:04.985Z,1.17
2022-08-10T22:17:59.705Z,1.00
2022-08-10T22:20:27.096Z,1.30
2022-08-10T22:23:37.276Z,1.00
2022-08-10T22:26:40.630Z,1.20
2022-08-10T22:29:42.723Z,0.90
2022-08-10T22:31:27.736Z,1.50
2022-08-10T22:32:27.964Z,1.00
2022-08-10T22:35:20.403Z,1.20
2022-08-10T22:38:23.300Z,1.50
2022-08-10T22:41:09.416Z,1.20
2022-08-10T22:43:55.179Z,1.20
2022-08-10T22:46:44.577Z,1.25
2022-08-10T22:49:15.612Z,1.00
2022-08-10T22:51:50.485Z,1.20
2022-08-10T22:54:38.466Z,1.30
2022-08-10T22:57:23.973Z,1.33
2022-08-10T22:59:51.112Z,1.15
2022-08-10T23:02:30.553Z,1.10
2022-08-10T23:05:09.349Z,1.15
2022-08-10T23:07:47.292Z,1.08
2022-08-10T23:10:17.880Z,1.00
2022-08-10T23:12:57.062Z,1.20
2022-08-10T23:15:49.351Z,1.17
2022-08-10T23:18:37.989Z,1.10
2022-08-10T23:21:04.990Z,1.10
2022-08-10T23:23:36.889Z,1.10
2022-08-10T23:26:06.341Z,1.10
2022-08-10T23:28:39.364Z,1.20
2022-08-10T23:32:01.494Z,1.10
2022-08-10T23:34:12.830Z,1.20
2022-08-10T23:36:40.165Z,0.93
2022-08-10T23:39:25.763Z,1.10
2022-08-10T23:42:06.346Z,0.88
2022-08-10T23:44:50.496Z,0.95
2022-08-10T23:47:20.689Z,1.08
2022-08-10T23:49:52.039Z,0.88
2022-08-10T23:52:23.379Z,1.25
2022-08-10T23:54:57.599Z,1.30
2022-08-10T23:57:26.391Z,1.30
2022-08-10T23:59:54.393Z,1.20
